Terminal Aerodrome Forecast
Issued by NWS

Home | Current Version | Previous Version | Graphics & Text | Print | Product List | Glossary Off
Versions: 1 2 3 4 5 6 7 8 9 10 11 12 13 14 15 16 17 18 19 20 21 22 23 24

000
FTUS43 KTOP 261100
TAFFOE
TAF
KFOE 261136Z 2612/2712 16006KT P6SM VCSH BKN080
     FM261400 20008KT P6SM BKN120
     FM261600 24014G22KT P6SM SCT040
     FM270000 25007KT P6SM SCT200=

USA.gov is the U.S. government's official web portal to all federal, state and local government web resources and services.